createdAt,value
2018-12-30T00:00:41.006Z,2.90
2018-12-30T00:03:11.859Z,3.00
2018-12-30T00:05:41.589Z,2.90
2018-12-30T00:08:11.031Z,2.90
2018-12-30T00:10:40.448Z,3.00
2018-12-30T00:13:09.795Z,3.00
2018-12-30T00:15:39.208Z,3.00
2018-12-30T00:18:08.918Z,3.00
2018-12-30T00:20:39.386Z,3.00
2018-12-30T00:23:09.592Z,3.00
2018-12-30T00:25:39.895Z,3.00
2018-12-30T00:28:10.142Z,3.00
2018-12-30T00:30:40.387Z,3.00
2018-12-30T00:33:10.631Z,3.10
2018-12-30T00:35:40.851Z,3.10
2018-12-30T00:38:11.075Z,3.10
2018-12-30T00:40:41.319Z,3.10
2018-12-30T00:43:11.530Z,3.10
2018-12-30T00:45:41.762Z,3.10
2018-12-30T00:48:11.981Z,3.10
2018-12-30T00:50:41.458Z,3.10
2018-12-30T00:53:10.865Z,3.10
2018-12-30T00:55:40.288Z,3.10
2018-12-30T00:58:09.774Z,3.10
2018-12-30T01:00:39.207Z,3.20
2018-12-30T01:03:09.010Z,3.20
2018-12-30T01:05:38.646Z,3.20
2018-12-30T01:08:08.096Z,3.20
2018-12-30T01:10:37.456Z,3.20
2018-12-30T01:13:06.874Z,3.20
2018-12-30T01:15:36.325Z,3.20
2018-12-30T01:18:07.400Z,3.20
2018-12-30T01:20:36.769Z,3.20
2018-12-30T01:23:06.262Z,3.20
2018-12-30T01:25:35.711Z,3.20
2018-12-30T01:28:06.603Z,3.20
2018-12-30T01:30:35.961Z,3.20
2018-12-30T01:35:34.413Z,3.20
2018-12-30T01:38:05.447Z,3.20
2018-12-30T01:40:34.873Z,3.20
2018-12-30T01:43:04.800Z,3.20
2018-12-30T01:45:34.226Z,3.20
2018-12-30T01:48:04.052Z,3.20
2018-12-30T01:55:31.600Z,3.40
2018-12-30T01:58:01.778Z,3.30
2018-12-30T02:00:31.284Z,3.20
2018-12-30T02:03:00.642Z,3.20
2018-12-30T02:05:30.012Z,3.20
2018-12-30T02:07:59.436Z,3.20
2018-12-30T02:10:29.592Z,3.20
2018-12-30T02:12:59.785Z,3.20
2018-12-30T02:15:30.000Z,3.20
2018-12-30T02:18:00.380Z,3.10
2018-12-30T02:20:30.598Z,3.10
2018-12-30T02:23:00.795Z,3.10
2018-12-30T02:25:31.039Z,3.10
2018-12-30T02:28:01.354Z,3.10
2018-12-30T02:30:33.303Z,3.10
2018-12-30T02:33:03.499Z,3.10
2018-12-30T02:35:33.738Z,3.10
2018-12-30T02:38:04.725Z,3.10
2018-12-30T02:40:35.323Z,3.10
2018-12-30T02:43:05.525Z,3.10
2018-12-30T02:45:35.754Z,3.20
2018-12-30T02:48:06.032Z,3.20
2018-12-30T02:50:36.270Z,3.10
2018-12-30T02:53:06.465Z,3.20
2018-12-30T02:55:36.680Z,3.20
2018-12-30T02:58:07.081Z,3.20
2018-12-30T03:00:37.307Z,3.20
2018-12-30T03:03:07.784Z,3.20
2018-12-30T03:05:38.002Z,3.20
2018-12-30T03:08:08.665Z,3.20
2018-12-30T03:10:38.908Z,3.20
2018-12-30T03:13:09.074Z,3.20
2018-12-30T03:15:39.340Z,3.20
2018-12-30T03:18:09.566Z,3.30
2018-12-30T03:20:39.779Z,3.30
2018-12-30T03:23:09.991Z,3.30
2018-12-30T03:25:40.233Z,3.30
2018-12-30T03:28:10.460Z,3.30
2018-12-30T03:30:40.694Z,3.30
2018-12-30T03:33:10.863Z,3.30
2018-12-30T03:35:41.097Z,3.30
2018-12-30T03:38:11.352Z,3.30
2018-12-30T03:40:41.559Z,3.30
2018-12-30T03:43:11.831Z,3.30
2018-12-30T03:45:42.057Z,3.30
2018-12-30T03:48:12.255Z,3.20
2018-12-30T03:50:42.478Z,3.30
2018-12-30T03:53:12.666Z,3.20
2018-12-30T03:55:42.891Z,3.20
2018-12-30T03:58:13.111Z,3.20
2018-12-30T04:00:43.341Z,3.20
2018-12-30T04:03:13.550Z,3.20
2018-12-30T04:05:43.768Z,3.20
2018-12-30T04:08:13.972Z,3.20
2018-12-30T04:10:44.215Z,3.20
2018-12-30T04:13:14.409Z,3.20
2018-12-30T04:15:44.657Z,3.20
2018-12-30T04:18:14.860Z,3.20
2018-12-30T04:20:45.090Z,3.20
2018-12-30T04:23:15.373Z,3.20
2018-12-30T04:25:45.578Z,3.20
2018-12-30T04:28:15.848Z,3.30
2018-12-30T04:30:46.058Z,3.30
2018-12-30T04:33:16.268Z,3.30
2018-12-30T04:35:46.483Z,3.30
2018-12-30T04:38:16.690Z,3.40
2018-12-30T04:40:46.906Z,3.40
2018-12-30T04:43:17.114Z,3.40
2018-12-30T04:45:47.352Z,3.50
2018-12-30T04:48:17.699Z,3.60
2018-12-30T04:50:47.908Z,3.60
2018-12-30T04:53:18.109Z,3.70
2018-12-30T04:55:48.342Z,3.70
2018-12-30T04:58:18.710Z,3.80
2018-12-30T05:00:48.940Z,3.80
2018-12-30T05:03:19.146Z,3.80
2018-12-30T05:05:49.362Z,3.90
2018-12-30T05:08:19.685Z,3.90
2018-12-30T05:10:49.906Z,4.00
2018-12-30T05:13:20.144Z,4.00
2018-12-30T05:15:50.364Z,4.00
2018-12-30T05:18:20.570Z,4.10
2018-12-30T05:20:50.784Z,4.10
2018-12-30T05:23:20.984Z,4.10
2018-12-30T05:25:51.219Z,4.10
2018-12-30T05:28:21.522Z,4.10
2018-12-30T05:30:51.743Z,4.10
2018-12-30T05:33:21.960Z,4.10
2018-12-30T05:35:52.159Z,4.10
2018-12-30T05:38:22.424Z,4.10
2018-12-30T05:40:52.747Z,4.10
2018-12-30T05:43:22.937Z,4.10
2018-12-30T05:45:53.248Z,4.20
2018-12-30T05:48:23.458Z,4.20
2018-12-30T05:50:53.692Z,4.20
2018-12-30T05:53:23.903Z,4.20
2018-12-30T05:55:54.139Z,4.20
2018-12-30T05:58:24.969Z,4.20
2018-12-30T06:00:55.237Z,4.20
2018-12-30T06:03:25.447Z,4.20
2018-12-30T06:05:55.667Z,4.20
2018-12-30T06:08:25.938Z,4.30
2018-12-30T06:10:56.154Z,4.30
2018-12-30T06:13:26.344Z,4.30
2018-12-30T06:15:56.563Z,4.30
2018-12-30T06:18:26.753Z,4.30
2018-12-30T06:20:56.967Z,4.30
2018-12-30T06:23:27.196Z,4.30
2018-12-30T06:25:57.411Z,4.30
2018-12-30T06:28:28.407Z,4.30
2018-12-30T06:30:58.632Z,4.30
2018-12-30T06:33:28.844Z,4.30
2018-12-30T06:35:59.091Z,4.30
2018-12-30T06:38:29.941Z,4.40
2018-12-30T06:41:01.206Z,4.30
2018-12-30T06:43:31.424Z,4.40
2018-12-30T06:46:01.638Z,4.40
2018-12-30T06:48:31.850Z,4.40
2018-12-30T06:51:02.407Z,4.40
2018-12-30T06:53:32.586Z,4.40
2018-12-30T06:56:02.824Z,4.50
2018-12-30T06:58:33.180Z,4.50
2018-12-30T07:01:03.419Z,4.50
2018-12-30T07:03:33.626Z,4.50
2018-12-30T07:06:03.848Z,4.50
2018-12-30T07:08:34.256Z,5.10
2018-12-30T07:11:04.748Z,4.60
2018-12-30T07:13:34.948Z,4.60
2018-12-30T07:16:05.170Z,4.60
2018-12-30T07:18:35.387Z,4.60
2018-12-30T07:21:05.602Z,4.60
2018-12-30T07:23:35.808Z,4.60
2018-12-30T07:26:06.016Z,4.70
2018-12-30T07:28:36.234Z,4.70
2018-12-30T07:31:06.464Z,4.70
2018-12-30T07:33:36.668Z,4.70
2018-12-30T07:36:06.874Z,4.70
2018-12-30T07:38:37.087Z,4.70
2018-12-30T07:41:07.310Z,4.70
2018-12-30T07:43:37.520Z,4.70
2018-12-30T07:46:07.752Z,4.80
2018-12-30T07:48:37.949Z,4.80
2018-12-30T07:51:08.155Z,4.80
2018-12-30T07:53:38.336Z,4.80
2018-12-30T07:56:08.571Z,4.80
2018-12-30T07:58:38.800Z,4.80
2018-12-30T08:01:09.027Z,4.80
2018-12-30T08:03:39.248Z,4.80
2018-12-30T08:06:09.479Z,4.80
2018-12-30T08:08:39.674Z,4.90
2018-12-30T08:11:09.904Z,4.90
2018-12-30T08:13:40.180Z,4.90
2018-12-30T08:16:10.402Z,5.00
2018-12-30T08:18:40.616Z,5.00
2018-12-30T08:21:10.844Z,5.00
2018-12-30T08:23:41.069Z,5.00
2018-12-30T08:26:11.297Z,5.00
2018-12-30T08:28:42.597Z,5.00
2018-12-30T08:31:12.883Z,5.10
2018-12-30T08:33:43.087Z,5.10
2018-12-30T08:36:13.291Z,5.10
2018-12-30T08:38:43.496Z,5.10
2018-12-30T08:41:13.721Z,5.10
2018-12-30T08:43:43.913Z,5.10
2018-12-30T08:46:26.315Z,5.20
2018-12-30T08:48:56.518Z,5.20
2018-12-30T08:51:26.753Z,5.20
2018-12-30T08:53:56.967Z,5.20
2018-12-30T08:56:27.208Z,5.30
2018-12-30T08:58:57.420Z,5.30
2018-12-30T09:01:28.372Z,5.30
2018-12-30T09:03:58.961Z,5.30
2018-12-30T09:06:29.163Z,5.30
2018-12-30T09:08:59.374Z,5.30
2018-12-30T09:11:29.585Z,5.30
2018-12-30T09:13:59.794Z,5.30
2018-12-30T09:16:30.005Z,5.30
2018-12-30T09:19:00.233Z,5.40
2018-12-30T09:21:30.440Z,5.40
2018-12-30T09:24:00.635Z,5.40
2018-12-30T09:26:30.856Z,5.50
2018-12-30T09:29:01.168Z,5.50
2018-12-30T09:31:31.377Z,5.50
2018-12-30T09:34:01.586Z,5.50
2018-12-30T09:36:31.818Z,5.60
2018-12-30T09:39:02.019Z,5.60
2018-12-30T09:41:32.245Z,5.60
2018-12-30T09:44:02.540Z,5.60
2018-12-30T09:46:32.761Z,5.70
2018-12-30T09:49:02.972Z,5.80
2018-12-30T09:51:33.196Z,5.80
2018-12-30T09:54:03.392Z,5.80
2018-12-30T09:56:33.643Z,5.90
2018-12-30T09:59:03.905Z,6.00
2018-12-30T10:01:34.137Z,6.00
2018-12-30T10:04:04.342Z,6.00
2018-12-30T10:06:34.562Z,6.00
2018-12-30T10:09:07.570Z,6.00
2018-12-30T10:11:57.697Z,6.10
2018-12-30T10:14:27.895Z,6.10
2018-12-30T10:16:58.121Z,6.10
2018-12-30T10:19:28.338Z,6.10
2018-12-30T10:21:58.650Z,6.10
2018-12-30T10:24:28.837Z,6.20
2018-12-30T10:26:59.103Z,6.20
2018-12-30T10:29:29.299Z,6.20
2018-12-30T10:31:59.531Z,6.20
2018-12-30T10:34:29.744Z,6.20
2018-12-30T10:36:59.992Z,6.20
2018-12-30T10:39:30.556Z,6.20
2018-12-30T10:42:01.137Z,6.20
2018-12-30T10:44:31.650Z,6.30
2018-12-30T10:47:02.190Z,6.30
2018-12-30T10:49:32.378Z,6.30
2018-12-30T10:52:02.613Z,6.30
2018-12-30T10:54:32.815Z,6.40
2018-12-30T10:57:03.066Z,6.40
2018-12-30T10:59:33.287Z,6.40
2018-12-30T11:02:03.499Z,6.30
2018-12-30T11:04:34.356Z,6.40
2018-12-30T11:07:04.588Z,6.40
2018-12-30T11:09:34.786Z,6.40
2018-12-30T11:12:05.153Z,6.40
2018-12-30T11:14:35.343Z,6.40
2018-12-30T11:17:05.652Z,6.30
2018-12-30T11:19:35.996Z,6.20
2018-12-30T11:22:08.002Z,6.10
2018-12-30T11:24:38.210Z,6.10
2018-12-30T11:27:08.440Z,6.00
2018-12-30T11:29:38.735Z,6.10
2018-12-30T11:32:09.116Z,6.10
2018-12-30T11:34:39.359Z,6.10
2018-12-30T11:37:09.592Z,6.20
2018-12-30T11:39:42.525Z,6.20
2018-12-30T11:42:12.737Z,6.30
2018-12-30T11:44:42.960Z,6.30
2018-12-30T11:47:13.255Z,6.40
2018-12-30T11:49:43.521Z,6.50
2018-12-30T11:52:13.728Z,6.50
2018-12-30T11:54:43.956Z,6.50
2018-12-30T11:57:14.162Z,6.50
2018-12-30T11:59:44.395Z,6.50
2018-12-30T12:02:14.650Z,6.60
2018-12-30T12:04:45.659Z,6.60
2018-12-30T12:07:15.857Z,6.60
2018-12-30T12:09:46.086Z,6.60
2018-12-30T12:12:16.310Z,6.60
2018-12-30T12:14:46.692Z,6.60
2018-12-30T12:17:16.902Z,6.60
2018-12-30T12:19:47.151Z,6.60
2018-12-30T12:22:17.366Z,6.70
2018-12-30T12:24:47.809Z,6.70
2018-12-30T12:27:18.018Z,6.70
2018-12-30T12:29:48.891Z,6.70
2018-12-30T12:32:19.074Z,6.70
2018-12-30T12:34:49.390Z,6.70
2018-12-30T12:37:19.599Z,6.70
2018-12-30T12:39:49.825Z,6.70
2018-12-30T12:42:20.052Z,6.70
2018-12-30T12:44:51.935Z,6.70
2018-12-30T12:47:22.147Z,6.70
2018-12-30T12:49:52.378Z,6.70
2018-12-30T12:52:22.682Z,6.70
2018-12-30T12:54:52.924Z,6.70
2018-12-30T12:57:23.148Z,6.60
2018-12-30T12:59:53.391Z,6.60
2018-12-30T13:02:23.602Z,6.60
2018-12-30T13:04:53.847Z,6.60
2018-12-30T13:07:24.040Z,6.60
2018-12-30T13:09:54.283Z,6.60
2018-12-30T13:12:24.511Z,6.60
2018-12-30T13:14:54.705Z,6.60
2018-12-30T13:17:24.961Z,6.50
2018-12-30T13:19:55.188Z,6.50
2018-12-30T13:22:25.412Z,6.50
2018-12-30T13:24:55.643Z,6.50
2018-12-30T13:27:25.930Z,6.40
2018-12-30T13:29:56.163Z,6.40
2018-12-30T13:32:26.428Z,6.40
2018-12-30T13:34:56.708Z,6.40
2018-12-30T13:37:26.961Z,6.40
2018-12-30T13:39:57.291Z,6.40
2018-12-30T13:42:27.532Z,6.40
2018-12-30T13:44:57.797Z,6.40
2018-12-30T13:47:28.015Z,6.50
2018-12-30T13:49:58.256Z,6.50
2018-12-30T13:52:28.455Z,6.50
2018-12-30T13:54:59.789Z,6.40
2018-12-30T13:57:29.989Z,6.40
2018-12-30T14:00:00.284Z,6.40
2018-12-30T14:02:34.808Z,6.40
2018-12-30T14:05:06.813Z,6.30
2018-12-30T14:07:37.160Z,6.30
2018-12-30T14:10:09.693Z,6.30
2018-12-30T14:12:40.142Z,6.30
2018-12-30T14:15:10.379Z,6.30
2018-12-30T14:17:40.593Z,6.30
2018-12-30T14:20:10.796Z,6.30
2018-12-30T14:22:41.014Z,6.30
2018-12-30T14:25:11.371Z,6.20
2018-12-30T14:27:41.706Z,6.20
2018-12-30T14:30:12.054Z,6.20
2018-12-30T14:32:42.259Z,6.20
2018-12-30T14:35:12.570Z,6.20
2018-12-30T14:37:43.008Z,6.10
2018-12-30T14:40:13.336Z,6.10
2018-12-30T14:42:43.844Z,6.10
2018-12-30T14:45:20.098Z,6.10
2018-12-30T14:47:50.510Z,6.10
2018-12-30T14:50:20.816Z,6.10
2018-12-30T14:52:51.068Z,6.00
2018-12-30T14:55:21.424Z,6.00
2018-12-30T14:57:51.736Z,6.00
2018-12-30T15:00:21.960Z,6.00
2018-12-30T15:02:52.173Z,6.00
2018-12-30T15:05:22.412Z,6.00
2018-12-30T15:07:52.642Z,6.00
2018-12-30T15:10:22.854Z,6.00
2018-12-30T15:12:53.067Z,6.00
2018-12-30T15:15:23.274Z,5.90
2018-12-30T15:17:53.487Z,5.90
2018-12-30T15:20:23.708Z,5.90
2018-12-30T15:22:53.910Z,5.90
2018-12-30T15:25:24.170Z,5.90
2018-12-30T15:27:54.346Z,5.90
2018-12-30T15:30:24.598Z,5.90
2018-12-30T15:32:54.814Z,5.90
2018-12-30T15:35:25.049Z,5.90
2018-12-30T15:37:55.262Z,5.90
2018-12-30T15:40:25.493Z,5.90
2018-12-30T15:42:55.695Z,5.90
2018-12-30T15:45:25.936Z,5.80
2018-12-30T15:47:56.153Z,5.90
2018-12-30T15:50:26.382Z,5.80
2018-12-30T15:52:56.573Z,5.80
2018-12-30T15:55:26.798Z,5.80
2018-12-30T15:57:57.007Z,5.80
2018-12-30T16:00:27.251Z,5.80
2018-12-30T16:02:57.477Z,5.80
2018-12-30T16:05:27.718Z,5.80
2018-12-30T16:07:57.929Z,5.90
2018-12-30T16:10:28.198Z,5.80
2018-12-30T16:13:00.061Z,5.80
2018-12-30T16:15:30.389Z,5.80
2018-12-30T16:18:00.762Z,5.80
2018-12-30T16:20:31.323Z,5.80
2018-12-30T16:23:01.538Z,5.80
2018-12-30T16:25:31.789Z,5.80
2018-12-30T16:28:01.983Z,5.80
2018-12-30T16:30:32.323Z,5.80
2018-12-30T16:33:02.529Z,5.80
2018-12-30T16:35:32.739Z,5.80
2018-12-30T16:38:02.943Z,5.70
2018-12-30T16:40:33.200Z,5.70
2018-12-30T16:43:03.396Z,5.70
2018-12-30T16:45:33.661Z,5.70
2018-12-30T16:48:03.872Z,5.70
2018-12-30T16:50:34.121Z,5.70
2018-12-30T16:53:04.359Z,5.70
2018-12-30T16:55:35.099Z,5.70
2018-12-30T16:58:07.523Z,5.70
2018-12-30T17:00:37.845Z,5.70
2018-12-30T17:03:08.805Z,5.70
2018-12-30T17:05:39.039Z,5.70
2018-12-30T17:08:09.236Z,5.70
2018-12-30T17:10:39.488Z,5.70
2018-12-30T17:13:09.679Z,5.70
2018-12-30T17:15:39.922Z,5.70
2018-12-30T17:18:10.115Z,5.70
2018-12-30T17:20:41.978Z,5.70
2018-12-30T17:23:12.340Z,5.70
2018-12-30T17:25:43.213Z,5.70
2018-12-30T17:28:13.709Z,5.70
2018-12-30T17:30:43.958Z,5.70
2018-12-30T17:33:14.152Z,5.70
2018-12-30T17:35:46.195Z,5.70
2018-12-30T17:38:16.461Z,5.70
2018-12-30T17:40:46.699Z,5.70
2018-12-30T17:43:16.899Z,5.70
2018-12-30T17:45:47.147Z,5.70
2018-12-30T17:48:17.353Z,5.70
2018-12-30T17:50:47.592Z,5.70
2018-12-30T17:53:17.784Z,5.70
2018-12-30T17:55:50.882Z,5.80
2018-12-30T17:58:19.922Z,5.80
2018-12-30T18:00:50.167Z,5.80
2018-12-30T18:03:20.452Z,5.70
2018-12-30T18:05:50.692Z,5.70
2018-12-30T18:08:20.883Z,5.70
2018-12-30T18:10:51.103Z,5.70
2018-12-30T18:13:21.305Z,5.70
2018-12-30T18:15:51.612Z,5.70
2018-12-30T18:18:21.826Z,5.70
2018-12-30T18:20:52.027Z,5.70
2018-12-30T18:23:22.241Z,5.70
2018-12-30T18:25:58.621Z,5.70
2018-12-30T18:28:24.447Z,5.70
2018-12-30T18:30:54.698Z,5.70
2018-12-30T18:33:24.925Z,5.70
2018-12-30T18:35:55.144Z,5.70
2018-12-30T18:38:25.362Z,5.70
2018-12-30T18:40:55.629Z,5.70
2018-12-30T18:43:25.843Z,5.70
2018-12-30T18:45:56.063Z,5.70
2018-12-30T18:48:26.277Z,5.70
2018-12-30T18:50:56.519Z,5.60
2018-12-30T18:53:26.815Z,5.60
2018-12-30T18:55:57.043Z,5.60
2018-12-30T18:58:27.253Z,5.60
2018-12-30T19:00:57.515Z,5.60
2018-12-30T19:03:27.727Z,5.60
2018-12-30T19:05:57.991Z,5.60
2018-12-30T19:08:28.221Z,5.60
2018-12-30T19:10:58.465Z,5.60
2018-12-30T19:13:28.682Z,5.60
2018-12-30T19:15:58.941Z,5.60
2018-12-30T19:18:29.245Z,5.60
2018-12-30T19:20:59.489Z,5.60
2018-12-30T19:23:29.757Z,5.60
2018-12-30T19:26:01.167Z,5.60
2018-12-30T19:28:31.586Z,5.60
2018-12-30T19:31:01.844Z,5.60
2018-12-30T19:33:32.063Z,5.60
2018-12-30T19:36:02.290Z,5.60
2018-12-30T19:38:32.494Z,5.60
2018-12-30T19:41:02.786Z,5.60
2018-12-30T19:43:33.066Z,5.60
2018-12-30T19:46:04.063Z,5.60
2018-12-30T19:48:34.414Z,5.50
2018-12-30T19:51:04.705Z,5.50
2018-12-30T19:53:34.964Z,5.50
2018-12-30T19:56:05.187Z,5.50
2018-12-30T19:58:36.272Z,5.50
2018-12-30T20:01:06.506Z,5.50
2018-12-30T20:03:36.703Z,5.50
2018-12-30T20:06:06.942Z,5.50
2018-12-30T20:08:37.150Z,5.50
2018-12-30T20:11:07.368Z,5.50
2018-12-30T20:13:37.582Z,5.50
2018-12-30T20:16:07.849Z,5.50
2018-12-30T20:18:38.038Z,5.50
2018-12-30T20:21:08.288Z,5.50
2018-12-30T20:23:38.495Z,5.50
2018-12-30T20:26:08.728Z,5.50
2018-12-30T20:28:38.973Z,5.50
2018-12-30T20:31:09.242Z,5.50
2018-12-30T20:33:39.420Z,5.50
2018-12-30T20:36:09.661Z,5.50
2018-12-30T20:38:39.874Z,5.50
2018-12-30T20:41:10.107Z,5.50
2018-12-30T20:43:40.339Z,5.50
2018-12-30T20:46:10.579Z,5.50
2018-12-30T20:48:40.839Z,5.50
2018-12-30T20:51:11.089Z,5.50
2018-12-30T20:53:41.309Z,5.50
2018-12-30T20:56:11.576Z,5.50
2018-12-30T20:58:41.817Z,5.50
2018-12-30T21:01:12.110Z,5.50
2018-12-30T21:03:42.359Z,5.50
2018-12-30T21:06:12.622Z,5.50
2018-12-30T21:08:42.868Z,5.50
2018-12-30T21:11:13.111Z,5.50
2018-12-30T21:13:43.337Z,5.40
2018-12-30T21:16:13.576Z,5.40
2018-12-30T21:18:43.807Z,5.40
2018-12-30T21:21:14.023Z,5.40
2018-12-30T21:23:44.221Z,5.40
2018-12-30T21:26:14.507Z,5.40
2018-12-30T21:28:44.705Z,5.40
2018-12-30T21:31:14.986Z,5.40
2018-12-30T21:33:45.192Z,5.40
2018-12-30T21:36:15.435Z,5.40
2018-12-30T21:38:45.700Z,5.40
2018-12-30T21:41:15.963Z,5.40
2018-12-30T21:43:46.182Z,5.40
2018-12-30T21:46:16.444Z,5.40
2018-12-30T21:48:46.717Z,5.40
2018-12-30T21:51:17.017Z,5.40
2018-12-30T21:53:47.251Z,5.40
2018-12-30T21:56:17.483Z,5.40
2018-12-30T21:58:47.685Z,5.40
2018-12-30T22:01:17.975Z,5.40
2018-12-30T22:03:48.176Z,5.40
2018-12-30T22:06:18.422Z,5.40
2018-12-30T22:08:48.613Z,5.40
2018-12-30T22:11:18.871Z,5.40
2018-12-30T22:13:49.067Z,5.40
2018-12-30T22:16:19.335Z,5.40
2018-12-30T22:18:49.565Z,5.40
2018-12-30T22:21:19.823Z,5.40
2018-12-30T22:23:50.007Z,5.40
2018-12-30T22:26:20.307Z,5.40
2018-12-30T22:28:50.984Z,5.40
2018-12-30T22:31:21.239Z,5.40
2018-12-30T22:33:51.515Z,5.40
2018-12-30T22:36:21.720Z,5.40
2018-12-30T22:38:52.781Z,5.40
2018-12-30T22:41:23.183Z,5.40
2018-12-30T22:43:53.382Z,5.40
2018-12-30T22:46:23.648Z,5.40
2018-12-30T22:48:53.908Z,5.40
2018-12-30T22:51:24.150Z,5.40
2018-12-30T22:53:54.335Z,5.40
2018-12-30T22:56:24.580Z,5.40
2018-12-30T22:58:54.781Z,5.30
2018-12-30T23:01:25.375Z,5.40
2018-12-30T23:03:55.599Z,5.30
2018-12-30T23:06:25.849Z,5.40
2018-12-30T23:08:56.039Z,5.40
2018-12-30T23:11:26.261Z,5.40
2018-12-30T23:13:56.470Z,5.40
2018-12-30T23:16:26.731Z,5.30
2018-12-30T23:18:56.942Z,5.30
2018-12-30T23:21:27.214Z,5.30
2018-12-30T23:23:57.511Z,5.30
2018-12-30T23:26:27.736Z,5.30
2018-12-30T23:28:57.981Z,5.30
2018-12-30T23:31:28.262Z,5.30
2018-12-30T23:33:58.485Z,5.30
2018-12-30T23:36:28.702Z,5.30
2018-12-30T23:38:58.932Z,5.30
2018-12-30T23:41:29.204Z,5.30
2018-12-30T23:43:59.416Z,5.30
2018-12-30T23:46:29.627Z,5.30
2018-12-30T23:48:59.829Z,5.30
2018-12-30T23:51:30.071Z,5.30
2018-12-30T23:54:00.306Z,5.30
2018-12-30T23:56:30.488Z,5.30
2018-12-30T23:59:00.718Z,5.30
